sensor_id;sensor_type;location;lat;lon;timestamp;noise_LAeq;noise_LA_min;noise_LA_max;noise_LA01;noise_LA95
69668;Laerm;66534;52.370;4.832;2023-01-20T00:00:01;51.70;39.64;80.20;;
69668;Laerm;66534;52.370;4.832;2023-01-20T00:00:33;43.77;39.16;61.16;;
69668;Laerm;66534;52.370;4.832;2023-01-20T00:01:05;42.46;38.43;65.12;;
69668;Laerm;66534;52.370;4.832;2023-01-20T00:01:44;42.27;38.95;60.50;;
69668;Laerm;66534;52.370;4.832;2023-01-20T00:02:22;47.84;39.23;71.99;;
69668;Laerm;66534;52.370;4.832;2023-01-20T00:02:55;43.32;40.52;57.92;;
69668;Laerm;66534;52.370;4.832;2023-01-20T00:03:37;45.66;40.95;57.34;;
69668;Laerm;66534;52.370;4.832;2023-01-20T00:04:15;42.80;38.40;55.79;;
69668;Laerm;66534;52.370;4.832;2023-01-20T00:04:53;46.53;39.24;73.94;;
69668;Laerm;66534;52.370;4.832;2023-01-20T00:05:28;42.27;39.22;58.44;;
69668;Laerm;66534;52.370;4.832;2023-01-20T00:06:01;42.92;39.26;62.75;;
69668;Laerm;66534;52.370;4.832;2023-01-20T00:06:33;46.61;41.95;71.11;;
69668;Laerm;66534;52.370;4.832;2023-01-20T00:07:05;43.34;40.19;49.12;;
69668;Laerm;66534;52.370;4.832;2023-01-20T00:07:36;42.23;37.39;51.32;;
69668;Laerm;66534;52.370;4.832;2023-01-20T00:08:07;44.73;38.18;64.88;;
69668;Laerm;66534;52.370;4.832;2023-01-20T00:08:38;46.59;39.32;56.79;;
69668;Laerm;66534;52.370;4.832;2023-01-20T00:09:13;43.10;38.55;50.62;;
69668;Laerm;66534;52.370;4.832;2023-01-20T00:09:45;44.44;39.69;54.61;;
69668;Laerm;66534;52.370;4.832;2023-01-20T00:10:16;47.51;40.30;54.87;;
69668;Laerm;66534;52.370;4.832;2023-01-20T00:10:46;42.25;38.70;54.89;;
69668;Laerm;66534;52.370;4.832;2023-01-20T00:11:18;40.35;37.63;57.35;;
69668;Laerm;66534;52.370;4.832;2023-01-20T00:11:49;39.58;37.57;51.11;;
69668;Laerm;66534;52.370;4.832;2023-01-20T00:12:19;39.27;37.03;49.33;;
69668;Laerm;66534;52.370;4.832;2023-01-20T00:12:50;43.59;38.01;54.41;;
69668;Laerm;66534;52.370;4.832;2023-01-20T00:13:21;46.37;40.30;52.34;;
69668;Laerm;66534;52.370;4.832;2023-01-20T00:13:53;41.78;38.19;52.16;;
69668;Laerm;66534;52.370;4.832;2023-01-20T00:14:25;40.54;37.90;52.28;;
69668;Laerm;66534;52.370;4.832;2023-01-20T00:14:57;43.59;39.52;50.97;;
69668;Laerm;66534;52.370;4.832;2023-01-20T00:15:28;43.31;38.36;51.68;;
69668;Laerm;66534;52.370;4.832;2023-01-20T00:16:01;41.68;38.22;54.85;;
69668;Laerm;66534;52.370;4.832;2023-01-20T00:16:32;44.01;38.50;51.39;;
69668;Laerm;66534;52.370;4.832;2023-01-20T00:17:03;42.23;39.13;53.64;;
69668;Laerm;66534;52.370;4.832;2023-01-20T00:17:33;40.36;38.01;55.01;;
69668;Laerm;66534;52.370;4.832;2023-01-20T00:18:04;40.94;38.30;55.70;;
69668;Laerm;66534;52.370;4.832;2023-01-20T00:18:35;43.03;38.29;53.65;;
69668;Laerm;66534;52.370;4.832;2023-01-20T00:19:09;43.86;39.12;51.51;;
69668;Laerm;66534;52.370;4.832;2023-01-20T00:19:41;47.05;38.93;55.00;;
69668;Laerm;66534;52.370;4.832;2023-01-20T00:20:11;45.17;38.92;50.62;;
69668;Laerm;66534;52.370;4.832;2023-01-20T00:20:42;47.72;41.20;55.59;;
69668;Laerm;66534;52.370;4.832;2023-01-20T00:21:13;44.22;40.15;50.60;;
69668;Laerm;66534;52.370;4.832;2023-01-20T00:21:45;43.97;39.91;50.39;;
69668;Laerm;66534;52.370;4.832;2023-01-20T00:22:16;46.23;38.82;55.63;;
69668;Laerm;66534;52.370;4.832;2023-01-20T00:22:46;40.33;37.53;52.86;;
69668;Laerm;66534;52.370;4.832;2023-01-20T00:23:17;44.33;39.13;53.44;;
69668;Laerm;66534;52.370;4.832;2023-01-20T00:23:48;42.61;39.29;50.03;;
69668;Laerm;66534;52.370;4.832;2023-01-20T00:24:19;42.35;38.69;51.90;;
69668;Laerm;66534;52.370;4.832;2023-01-20T00:24:49;43.03;38.04;51.46;;
69668;Laerm;66534;52.370;4.832;2023-01-20T00:25:20;45.03;39.70;53.06;;
69668;Laerm;66534;52.370;4.832;2023-01-20T00:25:51;43.69;39.33;49.43;;
69668;Laerm;66534;52.370;4.832;2023-01-20T00:26:23;41.52;38.25;49.85;;
69668;Laerm;66534;52.370;4.832;2023-01-20T00:26:53;41.39;39.06;50.34;;
69668;Laerm;66534;52.370;4.832;2023-01-20T00:27:24;42.69;38.66;50.19;;
69668;Laerm;66534;52.370;4.832;2023-01-20T00:27:54;41.23;38.20;48.52;;
69668;Laerm;66534;52.370;4.832;2023-01-20T00:28:25;41.81;37.65;49.47;;
69668;Laerm;66534;52.370;4.832;2023-01-20T00:28:55;40.39;37.89;49.87;;
69668;Laerm;66534;52.370;4.832;2023-01-20T00:29:28;43.93;39.13;49.96;;
69668;Laerm;66534;52.370;4.832;2023-01-20T00:29:59;45.28;41.77;54.88;;
69668;Laerm;66534;52.370;4.832;2023-01-20T00:30:30;42.41;38.46;50.12;;
69668;Laerm;66534;52.370;4.832;2023-01-20T00:31:11;39.22;36.29;48.47;;
69668;Laerm;66534;52.370;4.832;2023-01-20T00:31:42;38.58;36.58;49.67;;
69668;Laerm;66534;52.370;4.832;2023-01-20T00:32:13;42.93;38.11;50.21;;
69668;Laerm;66534;52.370;4.832;2023-01-20T00:32:43;39.91;37.19;51.28;;
69668;Laerm;66534;52.370;4.832;2023-01-20T00:33:13;44.36;39.32;49.79;;
69668;Laerm;66534;52.370;4.832;2023-01-20T00:33:45;44.84;39.56;50.85;;
69668;Laerm;66534;52.370;4.832;2023-01-20T00:34:16;44.10;40.62;51.82;;
69668;Laerm;66534;52.370;4.832;2023-01-20T00:34:46;42.76;38.59;53.75;;
69668;Laerm;66534;52.370;4.832;2023-01-20T00:35:17;40.01;36.98;52.26;;
69668;Laerm;66534;52.370;4.832;2023-01-20T00:35:47;39.97;36.76;52.78;;
69668;Laerm;66534;52.370;4.832;2023-01-20T00:36:19;38.82;36.41;52.48;;
69668;Laerm;66534;52.370;4.832;2023-01-20T00:36:49;40.53;36.89;55.22;;
69668;Laerm;66534;52.370;4.832;2023-01-20T00:37:20;39.38;36.78;50.04;;
69668;Laerm;66534;52.370;4.832;2023-01-20T00:37:50;43.84;40.38;52.05;;
69668;Laerm;66534;52.370;4.832;2023-01-20T00:38:21;42.78;38.58;50.95;;
69668;Laerm;66534;52.370;4.832;2023-01-20T00:38:51;42.10;37.44;52.46;;
69668;Laerm;66534;52.370;4.832;2023-01-20T00:39:21;42.99;37.68;54.62;;
69668;Laerm;66534;52.370;4.832;2023-01-20T00:39:52;43.48;37.82;50.94;;
69668;Laerm;66534;52.370;4.832;2023-01-20T00:40:22;40.40;37.98;50.75;;
69668;Laerm;66534;52.370;4.832;2023-01-20T00:40:55;44.39;37.63;52.80;;
69668;Laerm;66534;52.370;4.832;2023-01-20T00:41:26;44.96;40.92;53.27;;
69668;Laerm;66534;52.370;4.832;2023-01-20T00:41:59;41.94;38.44;50.58;;
69668;Laerm;66534;52.370;4.832;2023-01-20T00:42:29;39.13;35.60;49.60;;
69668;Laerm;66534;52.370;4.832;2023-01-20T00:43:00;43.57;37.49;52.53;;
69668;Laerm;66534;52.370;4.832;2023-01-20T00:43:30;41.19;38.25;54.34;;
69668;Laerm;66534;52.370;4.832;2023-01-20T00:44:00;38.86;36.57;48.09;;
69668;Laerm;66534;52.370;4.832;2023-01-20T00:44:31;38.21;35.86;50.50;;
69668;Laerm;66534;52.370;4.832;2023-01-20T00:45:01;39.53;35.91;49.52;;
69668;Laerm;66534;52.370;4.832;2023-01-20T00:45:32;39.43;36.66;48.83;;
69668;Laerm;66534;52.370;4.832;2023-01-20T00:46:03;41.65;36.88;50.68;;
69668;Laerm;66534;52.370;4.832;2023-01-20T00:46:33;42.88;38.09;50.66;;
69668;Laerm;66534;52.370;4.832;2023-01-20T00:47:04;42.51;39.09;52.51;;
69668;Laerm;66534;52.370;4.832;2023-01-20T00:47:34;41.10;37.97;50.57;;
69668;Laerm;66534;52.370;4.832;2023-01-20T00:48:05;41.34;37.25;55.31;;
69668;Laerm;66534;52.370;4.832;2023-01-20T00:48:35;41.83;35.92;53.51;;
69668;Laerm;66534;52.370;4.832;2023-01-20T00:49:06;37.66;35.37;50.51;;
69668;Laerm;66534;52.370;4.832;2023-01-20T00:49:36;37.54;35.03;47.84;;
69668;Laerm;66534;52.370;4.832;2023-01-20T00:50:07;37.85;35.48;48.79;;
69668;Laerm;66534;52.370;4.832;2023-01-20T00:50:37;41.54;38.07;49.68;;
69668;Laerm;66534;52.370;4.832;2023-01-20T00:51:09;47.90;42.97;58.36;;
69668;Laerm;66534;52.370;4.832;2023-01-20T00:51:39;51.50;39.74;60.99;;
69668;Laerm;66534;52.370;4.832;2023-01-20T00:52:10;49.20;38.56;64.08;;
69668;Laerm;66534;52.370;4.832;2023-01-20T00:52:40;45.96;38.67;59.72;;
69668;Laerm;66534;52.370;4.832;2023-01-20T00:53:10;48.53;43.50;60.01;;
69668;Laerm;66534;52.370;4.832;2023-01-20T00:53:41;48.32;44.02;57.44;;
69668;Laerm;66534;52.370;4.832;2023-01-20T00:54:11;45.81;40.35;58.90;;
69668;Laerm;66534;52.370;4.832;2023-01-20T00:54:41;42.19;39.22;48.94;;
69668;Laerm;66534;52.370;4.832;2023-01-20T00:55:12;42.63;37.75;51.64;;
69668;Laerm;66534;52.370;4.832;2023-01-20T00:55:42;49.42;40.66;59.30;;
69668;Laerm;66534;52.370;4.832;2023-01-20T00:56:13;46.66;39.47;58.60;;
69668;Laerm;66534;52.370;4.832;2023-01-20T00:56:43;41.83;38.62;52.00;;
69668;Laerm;66534;52.370;4.832;2023-01-20T00:57:13;48.24;37.75;67.27;;
69668;Laerm;66534;52.370;4.832;2023-01-20T00:57:44;40.90;38.18;53.28;;
69668;Laerm;66534;52.370;4.832;2023-01-20T00:58:14;45.59;38.66;63.68;;
69668;Laerm;66534;52.370;4.832;2023-01-20T00:58:45;47.22;39.16;63.48;;
69668;Laerm;66534;52.370;4.832;2023-01-20T00:59:15;44.90;41.27;51.68;;
69668;Laerm;66534;52.370;4.832;2023-01-20T00:59:45;41.20;38.37;54.04;;
69668;Laerm;66534;52.370;4.832;2023-01-20T01:00:19;42.00;37.18;55.77;;
69668;Laerm;66534;52.370;4.832;2023-01-20T01:00:51;40.71;36.13;53.78;;
69668;Laerm;66534;52.370;4.832;2023-01-20T01:01:22;38.89;36.03;52.68;;
69668;Laerm;66534;52.370;4.832;2023-01-20T01:01:53;44.62;38.39;56.40;;
69668;Laerm;66534;52.370;4.832;2023-01-20T01:02:23;46.40;42.27;57.33;;
69668;Laerm;66534;52.370;4.832;2023-01-20T01:02:53;45.20;39.62;57.19;;
69668;Laerm;66534;52.370;4.832;2023-01-20T01:03:24;45.83;40.37;58.65;;
69668;Laerm;66534;52.370;4.832;2023-01-20T01:03:56;44.16;40.15;59.04;;
69668;Laerm;66534;52.370;4.832;2023-01-20T01:04:27;44.09;41.43;56.69;;
69668;Laerm;66534;52.370;4.832;2023-01-20T01:04:58;48.43;41.50;71.09;;
69668;Laerm;66534;52.370;4.832;2023-01-20T01:05:28;44.66;39.47;58.11;;
69668;Laerm;66534;52.370;4.832;2023-01-20T01:06:10;43.90;39.67;54.85;;
69668;Laerm;66534;52.370;4.832;2023-01-20T01:06:41;45.52;39.05;66.91;;
69668;Laerm;66534;52.370;4.832;2023-01-20T01:07:12;44.42;39.37;57.75;;
69668;Laerm;66534;52.370;4.832;2023-01-20T01:07:42;43.94;40.43;56.57;;
69668;Laerm;66534;52.370;4.832;2023-01-20T01:08:12;45.82;39.97;63.62;;
69668;Laerm;66534;52.370;4.832;2023-01-20T01:08:43;46.89;40.08;68.84;;
69668;Laerm;66534;52.370;4.832;2023-01-20T01:09:13;42.14;38.42;59.55;;
69668;Laerm;66534;52.370;4.832;2023-01-20T01:09:44;42.76;38.90;61.51;;
69668;Laerm;66534;52.370;4.832;2023-01-20T01:10:15;44.79;40.48;57.08;;
69668;Laerm;66534;52.370;4.832;2023-01-20T01:10:45;47.70;40.65;59.33;;
69668;Laerm;66534;52.370;4.832;2023-01-20T01:11:15;42.30;38.85;54.45;;
69668;Laerm;66534;52.370;4.832;2023-01-20T01:11:47;44.66;39.84;61.55;;
69668;Laerm;66534;52.370;4.832;2023-01-20T01:12:17;43.52;39.85;60.26;;
69668;Laerm;66534;52.370;4.832;2023-01-20T01:12:48;42.95;39.30;59.54;;
69668;Laerm;66534;52.370;4.832;2023-01-20T01:13:18;43.14;38.82;56.78;;
69668;Laerm;66534;52.370;4.832;2023-01-20T01:13:48;42.81;38.60;62.03;;
69668;Laerm;66534;52.370;4.832;2023-01-20T01:14:19;45.82;39.83;65.00;;
69668;Laerm;66534;52.370;4.832;2023-01-20T01:14:49;45.20;39.20;61.57;;
69668;Laerm;66534;52.370;4.832;2023-01-20T01:15:19;43.67;37.74;64.26;;
69668;Laerm;66534;52.370;4.832;2023-01-20T01:15:50;50.61;38.58;78.91;;
69668;Laerm;66534;52.370;4.832;2023-01-20T01:16:20;42.17;38.37;56.61;;
69668;Laerm;66534;52.370;4.832;2023-01-20T01:16:51;40.62;37.77;52.91;;
69668;Laerm;66534;52.370;4.832;2023-01-20T01:17:22;43.39;37.49;68.69;;
69668;Laerm;66534;52.370;4.832;2023-01-20T01:17:53;49.47;38.97;77.39;;
69668;Laerm;66534;52.370;4.832;2023-01-20T01:18:24;42.06;38.86;53.42;;
69668;Laerm;66534;52.370;4.832;2023-01-20T01:18:54;41.67;38.49;54.89;;
69668;Laerm;66534;52.370;4.832;2023-01-20T01:19:24;42.50;37.61;61.79;;
69668;Laerm;66534;52.370;4.832;2023-01-20T01:19:55;43.14;37.43;60.10;;
69668;Laerm;66534;52.370;4.832;2023-01-20T01:20:26;45.26;38.04;69.38;;
69668;Laerm;66534;52.370;4.832;2023-01-20T01:20:57;44.70;39.26;66.79;;
69668;Laerm;66534;52.370;4.832;2023-01-20T01:21:27;45.77;40.14;62.81;;
69668;Laerm;66534;52.370;4.832;2023-01-20T01:21:58;47.76;39.21;74.15;;
69668;Laerm;66534;52.370;4.832;2023-01-20T01:22:30;41.79;37.66;53.08;;
69668;Laerm;66534;52.370;4.832;2023-01-20T01:23:01;42.68;37.76;67.18;;
69668;Laerm;66534;52.370;4.832;2023-01-20T01:23:32;40.61;37.42;55.41;;
69668;Laerm;66534;52.370;4.832;2023-01-20T01:24:02;40.44;37.05;50.65;;
69668;Laerm;66534;52.370;4.832;2023-01-20T01:24:32;40.98;37.34;60.13;;
69668;Laerm;66534;52.370;4.832;2023-01-20T01:25:03;43.01;38.18;60.50;;
69668;Laerm;66534;52.370;4.832;2023-01-20T01:25:36;42.25;39.18;60.84;;
69668;Laerm;66534;52.370;4.832;2023-01-20T01:26:07;41.31;38.03;51.59;;
69668;Laerm;66534;52.370;4.832;2023-01-20T01:26:37;41.88;38.59;55.79;;
69668;Laerm;66534;52.370;4.832;2023-01-20T01:27:08;42.93;38.75;54.14;;
69668;Laerm;66534;52.370;4.832;2023-01-20T01:27:38;44.83;39.43;53.66;;
69668;Laerm;66534;52.370;4.832;2023-01-20T01:28:09;41.66;38.40;49.06;;
69668;Laerm;66534;52.370;4.832;2023-01-20T01:28:39;42.13;37.47;52.98;;
69668;Laerm;66534;52.370;4.832;2023-01-20T01:29:10;40.76;38.16;53.86;;
69668;Laerm;66534;52.370;4.832;2023-01-20T01:29:40;39.75;37.19;47.80;;
69668;Laerm;66534;52.370;4.832;2023-01-20T01:30:11;40.09;37.55;49.93;;
69668;Laerm;66534;52.370;4.832;2023-01-20T01:30:42;41.09;37.83;54.39;;
69668;Laerm;66534;52.370;4.832;2023-01-20T01:31:13;41.17;37.62;52.22;;
69668;Laerm;66534;52.370;4.832;2023-01-20T01:31:44;40.82;38.43;51.89;;
69668;Laerm;66534;52.370;4.832;2023-01-20T01:32:14;41.24;38.29;56.66;;
69668;Laerm;66534;52.370;4.832;2023-01-20T01:32:46;42.79;39.00;57.06;;
69668;Laerm;66534;52.370;4.832;2023-01-20T01:33:16;42.30;38.46;55.65;;
69668;Laerm;66534;52.370;4.832;2023-01-20T01:33:47;40.79;37.74;54.64;;
69668;Laerm;66534;52.370;4.832;2023-01-20T01:34:18;41.42;38.46;47.43;;
69668;Laerm;66534;52.370;4.832;2023-01-20T01:34:48;44.66;39.61;61.03;;
69668;Laerm;66534;52.370;4.832;2023-01-20T01:35:19;43.23;39.80;55.88;;
69668;Laerm;66534;52.370;4.832;2023-01-20T01:36:00;45.13;40.89;52.29;;
69668;Laerm;66534;52.370;4.832;2023-01-20T01:36:31;43.67;39.02;60.46;;
69668;Laerm;66534;52.370;4.832;2023-01-20T01:37:01;42.79;38.38;56.21;;
69668;Laerm;66534;52.370;4.832;2023-01-20T01:37:31;41.36;37.97;53.84;;
69668;Laerm;66534;52.370;4.832;2023-01-20T01:38:02;43.00;38.82;54.93;;
69668;Laerm;66534;52.370;4.832;2023-01-20T01:38:33;40.80;37.34;54.56;;
69668;Laerm;66534;52.370;4.832;2023-01-20T01:39:03;39.34;36.89;49.35;;
69668;Laerm;66534;52.370;4.832;2023-01-20T01:39:33;39.49;36.56;55.69;;
69668;Laerm;66534;52.370;4.832;2023-01-20T01:40:04;43.63;38.93;58.79;;
69668;Laerm;66534;52.370;4.832;2023-01-20T01:40:35;46.55;40.28;55.82;;
69668;Laerm;66534;52.370;4.832;2023-01-20T01:41:05;44.87;38.98;58.57;;
69668;Laerm;66534;52.370;4.832;2023-01-20T01:41:36;42.31;37.37;49.78;;
69668;Laerm;66534;52.370;4.832;2023-01-20T01:42:10;44.24;39.76;58.05;;
69668;Laerm;66534;52.370;4.832;2023-01-20T01:42:41;43.65;36.49;58.68;;
69668;Laerm;66534;52.370;4.832;2023-01-20T01:43:21;39.36;36.23;55.30;;
69668;Laerm;66534;52.370;4.832;2023-01-20T01:44:07;42.48;37.64;55.69;;
69668;Laerm;66534;52.370;4.832;2023-01-20T01:45:34;41.83;37.98;51.28;;
69668;Laerm;66534;52.370;4.832;2023-01-20T01:46:05;41.77;37.27;59.71;;
69668;Laerm;66534;52.370;4.832;2023-01-20T01:46:36;40.92;36.78;55.68;;
69668;Laerm;66534;52.370;4.832;2023-01-20T01:47:07;40.79;37.22;58.97;;
69668;Laerm;66534;52.370;4.832;2023-01-20T01:47:48;39.81;36.39;56.14;;
69668;Laerm;66534;52.370;4.832;2023-01-20T01:48:24;40.56;36.97;53.14;;
69668;Laerm;66534;52.370;4.832;2023-01-20T01:48:57;40.44;37.62;52.83;;
69668;Laerm;66534;52.370;4.832;2023-01-20T01:49:31;43.37;39.71;52.37;;
69668;Laerm;66534;52.370;4.832;2023-01-20T01:50:02;41.59;39.13;44.96;;
69668;Laerm;66534;52.370;4.832;2023-01-20T01:50:35;41.07;38.02;59.54;;
69668;Laerm;66534;52.370;4.832;2023-01-20T01:51:12;44.04;37.52;68.07;;
69668;Laerm;66534;52.370;4.832;2023-01-20T01:51:48;39.65;36.35;54.29;;
69668;Laerm;66534;52.370;4.832;2023-01-20T01:52:20;39.06;36.57;50.72;;
69668;Laerm;66534;52.370;4.832;2023-01-20T01:52:52;42.17;37.73;55.51;;
69668;Laerm;66534;52.370;4.832;2023-01-20T01:53:25;46.08;38.73;54.08;;
69668;Laerm;66534;52.370;4.832;2023-01-20T01:54:10;40.26;37.43;49.79;;
69668;Laerm;66534;52.370;4.832;2023-01-20T01:54:42;39.27;36.58;44.14;;
69668;Laerm;66534;52.370;4.832;2023-01-20T01:55:15;42.83;38.89;49.42;;
69668;Laerm;66534;52.370;4.832;2023-01-20T01:55:57;42.82;37.99;54.33;;
69668;Laerm;66534;52.370;4.832;2023-01-20T01:56:29;40.45;37.37;47.47;;
69668;Laerm;66534;52.370;4.832;2023-01-20T01:57:00;40.51;36.31;52.60;;
69668;Laerm;66534;52.370;4.832;2023-01-20T01:57:31;38.71;35.96;53.60;;
69668;Laerm;66534;52.370;4.832;2023-01-20T01:58:04;40.01;36.69;51.94;;
69668;Laerm;66534;52.370;4.832;2023-01-20T01:58:38;40.40;36.68;47.03;;
69668;Laerm;66534;52.370;4.832;2023-01-20T01:59:11;42.39;39.02;49.90;;
69668;Laerm;66534;52.370;4.832;2023-01-20T01:59:42;39.24;36.95;47.52;;
69668;Laerm;66534;52.370;4.832;2023-01-20T02:00:13;39.71;37.05;58.65;;
69668;Laerm;66534;52.370;4.832;2023-01-20T02:00:44;40.17;37.73;46.92;;
69668;Laerm;66534;52.370;4.832;2023-01-20T02:01:16;43.78;40.59;49.69;;
69668;Laerm;66534;52.370;4.832;2023-01-20T02:01:51;40.13;37.80;51.32;;
69668;Laerm;66534;52.370;4.832;2023-01-20T02:02:22;39.68;37.21;45.13;;
69668;Laerm;66534;52.370;4.832;2023-01-20T02:02:54;40.78;37.42;58.37;;
69668;Laerm;66534;52.370;4.832;2023-01-20T02:03:37;40.99;37.81;53.41;;
69668;Laerm;66534;52.370;4.832;2023-01-20T02:04:12;41.56;37.36;46.95;;
69668;Laerm;66534;52.370;4.832;2023-01-20T02:04:42;39.57;37.07;49.01;;
69668;Laerm;66534;52.370;4.832;2023-01-20T02:05:14;38.42;36.21;49.57;;
69668;Laerm;66534;52.370;4.832;2023-01-20T02:05:47;38.45;35.98;51.99;;
69668;Laerm;66534;52.370;4.832;2023-01-20T02:06:20;40.79;36.73;51.79;;
69668;Laerm;66534;52.370;4.832;2023-01-20T02:06:58;39.75;37.36;50.75;;
69668;Laerm;66534;52.370;4.832;2023-01-20T02:07:31;40.27;37.57;54.63;;
69668;Laerm;66534;52.370;4.832;2023-01-20T02:08:02;38.66;36.03;53.04;;
69668;Laerm;66534;52.370;4.832;2023-01-20T02:08:33;37.94;36.03;45.63;;
69668;Laerm;66534;52.370;4.832;2023-01-20T02:09:04;39.24;36.56;44.65;;
69668;Laerm;66534;52.370;4.832;2023-01-20T02:09:35;43.89;39.24;60.76;;
69668;Laerm;66534;52.370;4.832;2023-01-20T02:10:06;45.85;40.13;52.83;;
69668;Laerm;66534;52.370;4.832;2023-01-20T02:10:37;39.45;36.76;50.22;;
69668;Laerm;66534;52.370;4.832;2023-01-20T02:11:07;43.85;37.02;64.33;;
69668;Laerm;66534;52.370;4.832;2023-01-20T02:11:43;42.93;37.90;49.71;;
69668;Laerm;66534;52.370;4.832;2023-01-20T02:12:19;39.60;35.89;51.33;;
69668;Laerm;66534;52.370;4.832;2023-01-20T02:12:51;40.88;36.60;51.31;;
69668;Laerm;66534;52.370;4.832;2023-01-20T02:13:22;39.38;36.55;48.41;;
69668;Laerm;66534;52.370;4.832;2023-01-20T02:13:53;38.41;36.36;48.93;;
69668;Laerm;66534;52.370;4.832;2023-01-20T02:14:29;38.46;35.51;50.80;;
69668;Laerm;66534;52.370;4.832;2023-01-20T02:15:02;37.74;35.15;42.03;;
69668;Laerm;66534;52.370;4.832;2023-01-20T02:15:39;37.36;34.28;44.98;;
69668;Laerm;66534;52.370;4.832;2023-01-20T02:16:16;39.61;36.34;46.61;;
69668;Laerm;66534;52.370;4.832;2023-01-20T02:17:31;38.04;36.00;45.04;;
69668;Laerm;66534;52.370;4.832;2023-01-20T02:19:06;39.22;36.35;56.05;;
69668;Laerm;66534;52.370;4.832;2023-01-20T02:23:00;42.34;35.09;50.88;;
69668;Laerm;66534;52.370;4.832;2023-01-20T02:24:58;43.60;36.35;54.84;;
69668;Laerm;66534;52.370;4.832;2023-01-20T02:31:31;38.16;35.55;48.67;;
69668;Laerm;66534;52.370;4.832;2023-01-20T02:32:59;39.05;35.86;42.82;;
69668;Laerm;66534;52.370;4.832;2023-01-20T02:33:43;40.20;37.02;45.26;;
69668;Laerm;66534;52.370;4.832;2023-01-20T02:35:02;39.46;36.92;46.46;;
69668;Laerm;66534;52.370;4.832;2023-01-20T02:35:43;40.32;36.52;46.95;;
69668;Laerm;66534;52.370;4.832;2023-01-20T02:36:26;44.09;36.51;63.67;;
69668;Laerm;66534;52.370;4.832;2023-01-20T02:37:10;43.82;37.32;59.69;;
69668;Laerm;66534;52.370;4.832;2023-01-20T02:37:57;40.28;36.36;52.82;;
69668;Laerm;66534;52.370;4.832;2023-01-20T02:40:08;38.55;35.68;50.07;;
69668;Laerm;66534;52.370;4.832;2023-01-20T02:40:52;37.70;35.02;45.84;;
69668;Laerm;66534;52.370;4.832;2023-01-20T02:41:34;37.99;35.29;49.42;;
69668;Laerm;66534;52.370;4.832;2023-01-20T02:42:58;40.16;36.22;48.05;;
69668;Laerm;66534;52.370;4.832;2023-01-20T02:45:49;40.77;36.81;47.45;;
69668;Laerm;66534;52.370;4.832;2023-01-20T02:46:31;39.88;36.46;50.75;;
69668;Laerm;66534;52.370;4.832;2023-01-20T02:47:12;44.35;38.88;57.62;;
69668;Laerm;66534;52.370;4.832;2023-01-20T02:47:56;40.37;38.04;46.72;;
69668;Laerm;66534;52.370;4.832;2023-01-20T02:49:57;40.80;37.67;50.04;;
69668;Laerm;66534;52.370;4.832;2023-01-20T02:51:11;39.35;36.76;46.49;;
69668;Laerm;66534;52.370;4.832;2023-01-20T02:51:52;39.08;36.27;47.32;;
69668;Laerm;66534;52.370;4.832;2023-01-20T02:52:30;44.09;38.00;52.52;;
69668;Laerm;66534;52.370;4.832;2023-01-20T02:53:02;48.51;41.44;62.95;;
69668;Laerm;66534;52.370;4.832;2023-01-20T02:53:47;43.90;39.49;53.44;;
69668;Laerm;66534;52.370;4.832;2023-01-20T02:54:20;42.34;38.48;47.30;;
69668;Laerm;66534;52.370;4.832;2023-01-20T02:54:56;43.75;39.02;49.53;;
69668;Laerm;66534;52.370;4.832;2023-01-20T02:55:41;41.50;38.26;45.62;;
69668;Laerm;66534;52.370;4.832;2023-01-20T02:56:14;40.48;38.11;50.43;;
69668;Laerm;66534;52.370;4.832;2023-01-20T02:56:47;40.33;37.52;48.37;;
69668;Laerm;66534;52.370;4.832;2023-01-20T02:57:24;40.35;37.52;48.87;;
69668;Laerm;66534;52.370;4.832;2023-01-20T02:58:06;40.21;37.53;50.32;;
69668;Laerm;66534;52.370;4.832;2023-01-20T02:58:48;44.76;38.88;52.72;;
69668;Laerm;66534;52.370;4.832;2023-01-20T02:59:22;42.32;37.75;48.22;;
69668;Laerm;66534;52.370;4.832;2023-01-20T03:00:00;44.66;37.85;55.47;;
69668;Laerm;66534;52.370;4.832;2023-01-20T03:00:38;44.36;37.26;54.31;;
69668;Laerm;66534;52.370;4.832;2023-01-20T03:01:14;41.39;36.52;47.30;;
69668;Laerm;66534;52.370;4.832;2023-01-20T03:01:49;39.63;37.10;41.91;;
69668;Laerm;66534;52.370;4.832;2023-01-20T03:02:24;40.29;37.08;43.61;;
69668;Laerm;66534;52.370;4.832;2023-01-20T03:02:58;39.56;36.92;48.11;;
69668;Laerm;66534;52.370;4.832;2023-01-20T03:03:34;39.44;37.04;42.36;;
69668;Laerm;66534;52.370;4.832;2023-01-20T03:04:09;43.66;38.99;51.15;;
69668;Laerm;66534;52.370;4.832;2023-01-20T03:04:56;41.44;37.91;48.27;;
69668;Laerm;66534;52.370;4.832;2023-01-20T03:05:32;39.71;37.29;46.74;;
69668;Laerm;66534;52.370;4.832;2023-01-20T03:06:09;39.76;37.52;48.57;;
69668;Laerm;66534;52.370;4.832;2023-01-20T03:06:46;43.46;37.60;49.33;;
69668;Laerm;66534;52.370;4.832;2023-01-20T03:07:21;42.07;39.66;47.50;;
69668;Laerm;66534;52.370;4.832;2023-01-20T03:07:54;41.74;39.49;46.02;;
69668;Laerm;66534;52.370;4.832;2023-01-20T03:08:28;43.64;39.77;52.00;;
69668;Laerm;66534;52.370;4.832;2023-01-20T03:09:04;43.67;39.64;51.05;;
69668;Laerm;66534;52.370;4.832;2023-01-20T03:09:43;43.42;39.47;48.99;;
69668;Laerm;66534;52.370;4.832;2023-01-20T03:10:20;44.56;38.61;51.60;;
69668;Laerm;66534;52.370;4.832;2023-01-20T03:10:53;42.08;38.43;58.03;;
69668;Laerm;66534;52.370;4.832;2023-01-20T03:11:29;44.38;38.77;54.58;;
69668;Laerm;66534;52.370;4.832;2023-01-20T03:12:08;43.92;39.63;58.24;;
69668;Laerm;66534;52.370;4.832;2023-01-20T03:12:57;43.95;39.00;50.85;;
69668;Laerm;66534;52.370;4.832;2023-01-20T03:14:10;44.65;39.45;50.08;;
69668;Laerm;66534;52.370;4.832;2023-01-20T03:14:41;43.36;39.14;48.93;;
69668;Laerm;66534;52.370;4.832;2023-01-20T03:15:12;40.49;38.30;44.88;;
69668;Laerm;66534;52.370;4.832;2023-01-20T03:16:27;41.40;37.57;48.30;;
69668;Laerm;66534;52.370;4.832;2023-01-20T03:16:58;40.40;37.53;43.54;;
69668;Laerm;66534;52.370;4.832;2023-01-20T03:17:28;40.65;37.68;44.41;;
69668;Laerm;66534;52.370;4.832;2023-01-20T03:17:58;40.04;37.49;45.04;;
69668;Laerm;66534;52.370;4.832;2023-01-20T03:18:30;39.97;37.35;43.47;;
69668;Laerm;66534;52.370;4.832;2023-01-20T03:19:01;49.57;39.19;60.11;;
69668;Laerm;66534;52.370;4.832;2023-01-20T03:19:31;48.71;38.85;58.92;;
69668;Laerm;66534;52.370;4.832;2023-01-20T03:20:02;41.07;38.36;46.14;;
69668;Laerm;66534;52.370;4.832;2023-01-20T03:20:33;50.95;40.29;65.02;;
69668;Laerm;66534;52.370;4.832;2023-01-20T03:21:05;43.23;39.43;49.61;;
69668;Laerm;66534;52.370;4.832;2023-01-20T03:21:36;42.63;40.00;46.58;;
69668;Laerm;66534;52.370;4.832;2023-01-20T03:22:07;42.22;39.32;44.50;;
69668;Laerm;66534;52.370;4.832;2023-01-20T03:22:37;41.83;38.43;47.13;;
69668;Laerm;66534;52.370;4.832;2023-01-20T03:23:07;40.02;37.71;53.70;;
69668;Laerm;66534;52.370;4.832;2023-01-20T03:23:42;40.32;37.31;49.34;;
69668;Laerm;66534;52.370;4.832;2023-01-20T03:24:14;40.19;37.86;42.45;;
69668;Laerm;66534;52.370;4.832;2023-01-20T03:24:46;40.61;37.84;56.37;;
69668;Laerm;66534;52.370;4.832;2023-01-20T03:25:18;41.62;38.92;48.88;;
69668;Laerm;66534;52.370;4.832;2023-01-20T03:25:49;41.34;38.77;45.10;;
69668;Laerm;66534;52.370;4.832;2023-01-20T03:26:20;40.34;38.05;43.08;;